Time;durP1;ratioP1;P1;durP2;ratioP2;P2;SDS_P1;SDS_P2;PMS_P1;PMS_P2;Temp;Humidity;BMP_temperature;BMP_pressure;BME280_temperature;BME280_humidity;BME280_pressure;Samples;Min_cycle;Max_cycle;Signal;HPM_P1;HPM_P2
2021/04/01 00:01:20;;;;;;;;;;;;;;;2.81;76.93;102032.95;1888942;76;20132;-75
2021/04/01 00:03:48;;;;;;;;;;;;;;;2.77;77.04;102033.42;1889123;76;20216;-75
2021/04/01 00:06:15;;;;;;;;;;;;;;;2.75;77.16;102032.57;1889215;76;20148;-76
2021/04/01 00:08:43;;;;;;;;;;;;;;;2.73;77.01;102029.19;1889243;76;21194;-76
2021/04/01 00:11:11;;;;;;;;;;;;;;;2.71;76.97;102024.95;1889022;76;20104;-76
2021/04/01 00:13:43;;;;;;;;;;;;;;;2.68;77.14;102030.52;1889021;76;20120;-78
2021/04/01 00:16:10;;;;;;;;;;;;;;;2.66;77.28;102024.56;1888992;76;20132;-75
2021/04/01 00:18:40;;;;;;;;;;;;;;;2.63;77.18;102023.33;1889247;76;20496;-76
2021/04/01 00:21:08;;;;;;;;;;;;;;;2.60;77.08;102025.92;1889107;76;22240;-75
2021/04/01 00:23:38;;;;;;;;;;;;;;;2.58;77.14;102017.42;1887960;76;20228;-75
2021/04/01 00:26:09;;;;;;;;;;;;;;;2.56;77.10;102018.27;1889195;76;20171;-75
2021/04/01 00:28:37;;;;;;;;;;;;;;;2.52;77.21;102017.46;1888969;76;20661;-75
2021/04/01 00:31:04;;;;;;;;;;;;;;;2.48;77.49;102026.06;1889343;76;20168;-75
2021/04/01 00:33:32;;;;;;;;;;;;;;;2.47;77.42;102017.10;1889191;76;21569;-75
2021/04/01 00:36:00;;;;;;;;;;;;;;;2.45;77.47;102015.86;1897345;75;20239;-75
2021/04/01 00:38:27;;;;;;;;;;;;;;;2.42;77.52;102018.45;1898060;75;20135;-75
2021/04/01 00:40:56;;;;;;;;;;;;;;;2.38;77.59;102017.21;1898104;75;20278;-75
2021/04/01 00:43:24;;;;;;;;;;;;;;;2.33;77.83;102014.69;1898277;75;20297;-75
2021/04/01 00:45:53;;;;;;;;;;;;;;;2.32;78.12;102011.73;1898173;75;21425;-75
2021/04/01 00:48:21;;;;;;;;;;;;;;;2.35;78.24;102010.41;1898362;75;20477;-76
2021/04/01 00:50:50;;;;;;;;;;;;;;;2.38;78.22;102011.66;1898043;75;20242;-77
2021/04/01 00:53:18;;;;;;;;;;;;;;;2.39;78.04;102002.27;1898225;75;20201;-75
2021/04/01 00:55:46;;;;;;;;;;;;;;;2.36;77.97;101997.18;1898070;75;20163;-75
2021/04/01 00:58:13;;;;;;;;;;;;;;;2.36;78.12;101996.72;1898106;75;21137;-76
2021/04/01 01:00:41;;;;;;;;;;;;;;;2.37;78.17;101986.05;1897828;75;20128;-75
2021/04/01 01:03:09;;;;;;;;;;;;;;;2.38;78.00;101998.00;1897958;75;20206;-75
2021/04/01 01:05:38;;;;;;;;;;;;;;;2.37;77.64;101988.61;1898018;75;20219;-75
2021/04/01 01:08:06;;;;;;;;;;;;;;;2.33;77.44;101983.95;1898204;75;20210;-76
2021/04/01 01:10:35;;;;;;;;;;;;;;;2.31;77.49;101982.27;1897949;75;20156;-76
2021/04/01 01:13:03;;;;;;;;;;;;;;;2.30;77.46;101982.70;1897979;75;20528;-76
2021/04/01 01:15:33;;;;;;;;;;;;;;;2.26;77.37;101980.21;1898149;75;20502;-76
2021/04/01 01:18:01;;;;;;;;;;;;;;;2.23;77.40;101982.80;1898024;75;20247;-76
2021/04/01 01:20:29;;;;;;;;;;;;;;;2.21;77.50;101980.67;1898180;75;20135;-76
2021/04/01 01:22:58;;;;;;;;;;;;;;;2.18;77.70;101981.56;1893870;75;21120;-76
2021/04/01 01:25:26;;;;;;;;;;;;;;;2.17;77.63;101977.30;1897864;75;20488;-76
2021/04/01 01:27:54;;;;;;;;;;;;;;;2.16;77.59;101978.61;1898066;75;20493;-75
2021/04/01 01:30:22;;;;;;;;;;;;;;;2.14;77.60;101978.61;1898086;75;20697;-75
2021/04/01 01:32:57;;;;;;;;;;;;;;;2.12;77.58;101976.50;1897939;75;20143;-75
2021/04/01 01:35:21;;;;;;;;;;;;;;;2.10;77.62;101970.56;1876797;75;22333;-75
2021/04/01 01:37:56;;;;;;;;;;;;;;;2.07;77.67;101968.86;1858477;77;20210;-76
2021/04/01 01:40:25;;;;;;;;;;;;;;;2.04;77.59;101976.57;1858984;77;20480;-75
2021/04/01 01:42:54;;;;;;;;;;;;;;;2.02;77.76;101976.17;1858711;77;20145;-75
2021/04/01 01:45:22;;;;;;;;;;;;;;;2.00;77.76;101974.93;1858947;77;20214;-75
2021/04/01 01:47:50;;;;;;;;;;;;;;;1.97;77.72;101972.41;1858564;77;21188;-75
2021/04/01 01:50:20;;;;;;;;;;;;;;;1.98;77.73;101970.66;1858731;77;20213;-75
2021/04/01 01:52:49;;;;;;;;;;;;;;;1.97;77.68;101968.98;1858721;76;20540;-75
2021/04/01 01:55:17;;;;;;;;;;;;;;;1.95;77.71;101968.13;1858762;77;20253;-75
2021/04/01 01:57:46;;;;;;;;;;;;;;;1.94;77.81;101969.88;1858958;77;20180;-75
2021/04/01 02:00:17;;;;;;;;;;;;;;;1.93;77.76;101974.98;1859044;77;21363;-75
2021/04/01 02:02:52;;;;;;;;;;;;;;;1.89;77.82;101965.20;1858937;77;20550;-75
2021/04/01 02:05:21;;;;;;;;;;;;;;;1.90;78.03;101969.48;1858864;77;20265;-75
2021/04/01 02:07:49;;;;;;;;;;;;;;;1.92;78.23;101967.73;1858671;77;20126;-75
2021/04/01 02:10:19;;;;;;;;;;;;;;;1.92;78.26;101962.62;1858822;77;20849;-75
2021/04/01 02:12:48;;;;;;;;;;;;;;;1.92;78.11;101967.73;1858801;77;20138;-75
2021/04/01 02:15:17;;;;;;;;;;;;;;;1.91;77.99;101959.66;1859116;77;20615;-75
2021/04/01 02:17:45;;;;;;;;;;;;;;;1.90;77.88;101958.38;1858791;77;20293;-75
2021/04/01 02:20:13;;;;;;;;;;;;;;;1.88;77.96;101958.38;1859120;77;20126;-75
2021/04/01 02:22:41;;;;;;;;;;;;;;;1.87;78.24;101959.27;1859029;77;20242;-75
2021/04/01 02:25:09;;;;;;;;;;;;;;;1.89;78.37;101963.08;1858817;77;21187;-75
2021/04/01 02:27:37;;;;;;;;;;;;;;;1.90;78.59;101959.66;1859088;77;20534;-75
2021/04/01 02:30:06;;;;;;;;;;;;;;;1.92;78.46;101962.62;1858884;77;20142;-75
2021/04/01 02:32:34;;;;;;;;;;;;;;;1.90;78.25;101955.40;1858906;77;20131;-75
2021/04/01 02:35:02;;;;;;;;;;;;;;;1.89;78.03;101956.25;1869762;75;20397;-75
2021/04/01 02:37:30;;;;;;;;;;;;;;;1.88;77.88;101957.56;1899982;75;22661;-75
2021/04/01 02:39:57;;;;;;;;;;;;;;;1.87;78.06;101952.87;1900004;75;20135;-75
2021/04/01 02:42:25;;;;;;;;;;;;;;;1.88;78.17;101951.98;1900235;75;20268;-75
2021/04/01 02:44:52;;;;;;;;;;;;;;;1.89;78.19;101946.02;1900116;75;20321;-75
2021/04/01 02:47:20;;;;;;;;;;;;;;;1.87;78.19;101943.91;1900005;75;20211;-75
2021/04/01 02:49:48;;;;;;;;;;;;;;;1.88;77.92;101949.42;1900021;75;21187;-75
2021/04/01 02:52:16;;;;;;;;;;;;;;;1.88;77.79;101952.45;1899900;75;20176;-75
2021/04/01 02:54:44;;;;;;;;;;;;;;;1.85;77.73;101946.90;1899929;75;20163;-75
2021/04/01 02:57:16;;;;;;;;;;;;;;;1.82;77.62;101948.20;1899906;75;20222;-75
2021/04/01 02:59:46;;;;;;;;;;;;;;;1.80;77.54;101947.81;1900022;75;20697;-75
2021/04/01 03:02:15;;;;;;;;;;;;;;;1.77;77.58;101946.56;1899994;75;21323;-75
2021/04/01 03:04:42;;;;;;;;;;;;;;;1.72;77.50;101944.06;1900193;75;20178;-75
2021/04/01 03:07:10;;;;;;;;;;;;;;;1.69;77.71;101941.97;1900089;75;20211;-75
2021/04/01 03:09:39;;;;;;;;;;;;;;;1.66;77.85;101941.53;1899869;75;20486;-75
2021/04/01 03:12:08;;;;;;;;;;;;;;;1.63;77.98;101936.45;1900161;75;20536;-75
2021/04/01 03:14:36;;;;;;;;;;;;;;;1.61;78.21;101942.02;1899993;75;21167;-75
2021/04/01 03:17:04;;;;;;;;;;;;;;;1.59;78.55;101938.64;1899856;75;20247;-75
2021/04/01 03:19:33;;;;;;;;;;;;;;;1.59;78.78;101942.05;1899937;75;20489;-75
2021/04/01 03:22:01;;;;;;;;;;;;;;;1.58;78.65;101936.94;1900033;75;20290;-74
2021/04/01 03:24:29;;;;;;;;;;;;;;;1.56;78.69;101937.39;1900195;75;20283;-74
2021/04/01 03:26:57;;;;;;;;;;;;;;;1.56;79.01;101941.23;1900054;75;21194;-74
2021/04/01 03:29:24;;;;;;;;;;;;;;;1.54;78.99;101940.38;1900254;75;20635;-75
2021/04/01 03:31:52;;;;;;;;;;;;;;;1.51;78.97;101939.12;1900095;75;20183;-75
2021/04/01 03:34:20;;;;;;;;;;;;;;;1.47;79.28;101929.77;1900116;75;20167;-75
2021/04/01 03:36:49;;;;;;;;;;;;;;;1.48;79.59;101935.31;1899933;75;20462;-75
2021/04/01 03:39:16;;;;;;;;;;;;;;;1.52;79.73;101932.73;1900279;75;21369;-75
2021/04/01 03:41:46;;;;;;;;;;;;;;;1.53;79.36;101928.46;1899897;75;20383;-75
2021/04/01 03:44:15;;;;;;;;;;;;;;;1.55;79.31;101930.56;1899915;75;20144;-75
2021/04/01 03:46:42;;;;;;;;;;;;;;;1.59;79.22;101932.24;1900375;75;20766;-75
2021/04/01 03:49:10;;;;;;;;;;;;;;;1.59;78.85;101927.98;1900261;75;20580;-75
2021/04/01 03:51:37;;;;;;;;;;;;;;;1.61;78.51;101929.23;1900169;75;21193;-75
2021/04/01 03:54:07;;;;;;;;;;;;;;;1.59;78.21;101930.54;1899723;75;20175;-75
2021/04/01 03:56:35;;;;;;;;;;;;;;;1.55;78.05;101928.86;1899819;75;20139;-75
2021/04/01 03:59:09;;;;;;;;;;;;;;;1.53;77.86;101925.45;1900086;75;20843;-75
2021/04/01 04:01:54;;;;;;;;;;;;;;;1.49;77.80;101924.23;1898821;75;20486;-75
2021/04/01 04:04:14;;;;;;;;;;;;;;;1.47;77.90;101924.22;1895530;75;21183;-75
2021/04/01 04:10:08;;;;;;;;;;;;;;;1.49;78.34;101928.06;1899846;75;20553;-75
2021/04/01 04:12:13;;;;;;;;;;;;;;;1.51;78.55;101921.22;1868028;75;20147;-75
2021/04/01 04:14:32;;;;;;;;;;;;;;;1.55;78.52;101928.01;1895484;75;20234;-75
2021/04/01 04:16:56;;;;;;;;;;;;;;;1.55;78.09;101922.89;1899245;75;21634;-75
2021/04/01 04:19:23;;;;;;;;;;;;;;;1.54;78.05;101932.27;1899966;75;20215;-74
2021/04/01 04:21:51;;;;;;;;;;;;;;;1.55;78.01;101926.30;1899988;75;20104;-74
2021/04/01 04:24:19;;;;;;;;;;;;;;;1.55;77.75;101927.58;1900107;75;20211;-75
2021/04/01 04:26:49;;;;;;;;;;;;;;;1.49;77.39;101928.92;1899928;75;20251;-75
2021/04/01 04:29:16;;;;;;;;;;;;;;;1.44;77.21;101928.09;1900375;75;20996;-75
2021/04/01 04:31:44;;;;;;;;;;;;;;;1.40;77.27;101923.89;1899938;75;20136;-75
2021/04/01 04:34:12;;;;;;;;;;;;;;;1.39;77.20;101921.33;1900058;75;20490;-75
2021/04/01 04:36:40;;;;;;;;;;;;;;;1.38;77.12;101924.30;1891952;75;20302;-76
2021/04/01 04:39:07;;;;;;;;;;;;;;;1.39;77.00;101928.57;1888967;76;20243;-75
2021/04/01 04:41:35;;;;;;;;;;;;;;;1.38;76.95;101932.41;1889767;76;21321;-76
2021/04/01 04:44:02;;;;;;;;;;;;;;;1.40;76.80;101934.11;1890400;76;20135;-75
2021/04/01 04:46:30;;;;;;;;;;;;;;;1.43;76.60;101926.41;1889681;76;20215;-75
2021/04/01 04:48:58;;;;;;;;;;;;;;;1.47;76.52;101929.34;1889355;76;20133;-75
2021/04/01 04:51:25;;;;;;;;;;;;;;;1.54;76.47;101926.30;1889588;76;20243;-75
2021/04/01 04:53:53;;;;;;;;;;;;;;;1.63;76.27;101925.39;1889186;76;21175;-75
2021/04/01 04:56:23;;;;;;;;;;;;;;;1.71;76.09;101921.03;1889266;76;20172;-76
2021/04/01 04:58:59;;;;;;;;;;;;;;;1.77;75.89;101917.13;1889189;76;20172;-75
2021/04/01 05:06:57;;;;;;;;;;;;;;;1.98;75.49;101910.08;1888900;76;21202;-75
2021/04/01 05:09:26;;;;;;;;;;;;;;;2.09;75.54;101908.27;1889123;76;20573;-76
2021/04/01 05:11:53;;;;;;;;;;;;;;;2.24;75.58;101910.20;1889140;76;20219;-76
2021/04/01 05:14:21;;;;;;;;;;;;;;;2.35;75.60;101913.50;1888982;76;20143;-76
2021/04/01 05:16:49;;;;;;;;;;;;;;;2.45;75.40;101903.13;1889028;76;20626;-76
2021/04/01 05:19:17;;;;;;;;;;;;;;;2.53;75.07;101906.42;1889213;76;21259;-76
2021/04/01 05:24:23;;;;;;;;;;;;;;;2.72;74.54;101908.30;1889045;76;20313;-76
2021/04/01 05:29:34;;;;;;;;;;;;;;;2.92;74.16;101900.33;1889035;76;20584;-76
2021/04/01 05:32:05;;;;;;;;;;;;;;;3.02;74.18;101900.18;1888889;76;22413;-75
2021/04/01 05:34:34;;;;;;;;;;;;;;;3.12;74.17;101899.17;1888722;76;20211;-75
2021/04/01 05:37:02;;;;;;;;;;;;;;;3.25;74.07;101902.82;1896591;75;20211;-75
2021/04/01 05:39:36;;;;;;;;;;;;;;;3.36;74.02;101900.48;1899545;75;20143;-75
2021/04/01 05:42:02;;;;;;;;;;;;;;;3.46;73.84;101898.17;1899754;75;20620;-75
2021/04/01 05:44:42;;;;;;;;;;;;;;;3.55;73.53;101906.99;1899781;75;21128;-76
2021/04/01 05:47:15;;;;;;;;;;;;;;;3.65;73.35;101907.25;1899559;75;20563;-76
2021/04/01 05:49:47;;;;;;;;;;;;;;;3.77;72.87;101901.03;1898546;75;20207;-76
2021/04/01 06:00:28;;;;;;;;;;;;;;;4.25;71.21;101898.81;1899968;75;20533;-76
2021/04/01 06:02:54;;;;;;;;;;;;;;;4.40;70.80;101896.82;1895426;75;20215;-76
2021/04/01 06:05:14;;;;;;;;;;;;;;;4.53;70.53;101895.69;1897311;75;20207;-77
2021/04/01 06:07:42;;;;;;;;;;;;;;;4.67;70.01;101900.92;1899717;75;20215;-77
2021/04/01 06:10:11;;;;;;;;;;;;;;;4.87;69.09;101899.20;1899779;75;21178;-76
2021/04/01 06:12:40;;;;;;;;;;;;;;;5.04;68.69;101900.92;1875765;74;20217;-76
2021/04/01 06:15:12;;;;;;;;;;;;;;;5.17;68.21;101898.47;1912052;74;20234;-75
2021/04/01 06:17:45;;;;;;;;;;;;;;;5.34;67.65;101898.91;1899780;75;20107;-77
2021/04/01 06:20:14;;;;;;;;;;;;;;;5.50;67.12;101903.23;1899035;75;20489;-76
2021/04/01 06:22:43;;;;;;;;;;;;;;;5.63;66.87;101900.75;1876759;75;22031;-76
2021/04/01 06:25:12;;;;;;;;;;;;;;;5.76;66.50;101890.97;1898817;75;20486;-76
2021/04/01 06:27:49;;;;;;;;;;;;;;;5.90;66.33;101895.36;1898509;75;20266;-76
2021/04/01 06:30:20;;;;;;;;;;;;;;;6.02;66.12;101887.28;1897689;75;20289;-75
2021/04/01 06:32:52;;;;;;;;;;;;;;;6.14;65.74;101888.22;1897973;75;20310;-75
2021/04/01 06:35:31;;;;;;;;;;;;;;;6.25;65.45;101884.88;1897390;75;20545;-76
2021/04/01 06:40:56;;;;;;;;;;;;;;;6.51;65.21;101887.17;1898456;75;20260;-75
2021/04/01 06:44:03;;;;;;;;;;;;;;;6.64;64.59;101884.59;1898632;75;20313;-76
2021/04/01 06:46:41;;;;;;;;;;;;;;;6.75;63.74;101885.98;1898819;75;20596;-77
2021/04/01 06:52:10;;;;;;;;;;;;;;;6.97;62.95;101890.02;1898774;75;20360;-77
2021/04/01 06:54:44;;;;;;;;;;;;;;;7.07;62.56;101886.27;1898570;75;20218;-77
2021/04/01 06:57:38;;;;;;;;;;;;;;;7.18;62.19;101896.25;1898652;75;20297;-75
2021/04/01 07:00:33;;;;;;;;;;;;;;;7.29;62.34;101892.42;1892324;75;20278;-78
2021/04/01 07:03:07;;;;;;;;;;;;;;;7.42;62.02;101887.69;1825616;78;22181;-75
2021/04/01 07:05:45;;;;;;;;;;;;;;;7.55;61.40;101888.12;1824154;78;20314;-75
2021/04/01 07:08:13;;;;;;;;;;;;;;;7.67;61.12;101885.11;1860225;76;20567;-76
2021/04/01 07:13:31;;;;;;;;;;;;;;;7.95;60.50;101887.97;1825861;78;20311;-75
2021/04/01 07:16:17;;;;;;;;;;;;;;;8.09;60.40;101882.75;1825817;78;20291;-76
2021/04/01 07:46:33;;;;;;;;;;;;;;;9.45;58.09;101862.69;1829567;78;20299;-74
2021/04/01 07:49:07;;;;;;;;;;;;;;;9.57;58.28;101857.45;1829953;78;20692;-77
2021/04/01 07:54:27;;;;;;;;;;;;;;;9.69;57.92;101852.19;1829858;78;20580;-75
2021/04/01 07:57:11;;;;;;;;;;;;;;;9.74;57.88;101847.19;1829986;78;22222;-76
2021/04/01 08:04:58;;;;;;;;;;;;;;;9.96;57.32;101839.30;1829484;78;20303;-74
2021/04/01 08:07:31;;;;;;;;;;;;;;;10.03;57.06;101833.78;1829769;78;20279;-76
2021/04/01 08:10:07;;;;;;;;;;;;;;;10.10;56.74;101835.19;1829786;78;22148;-76
2021/04/01 08:12:42;;;;;;;;;;;;;;;10.17;56.41;101831.05;1829505;78;20266;-77
2021/04/01 08:15:17;;;;;;;;;;;;;;;10.21;56.56;101829.52;1829795;78;20278;-76
2021/04/01 08:18:01;;;;;;;;;;;;;;;10.30;55.94;101831.72;1831336;78;20267;-78
2021/04/01 08:20:29;;;;;;;;;;;;;;;10.34;55.22;101821.56;1829261;78;20279;-76
2021/04/01 08:23:12;;;;;;;;;;;;;;;10.38;54.71;101827.00;1825415;78;22946;-74
2021/04/01 08:26:39;;;;;;;;;;;;;;;10.43;55.32;101824.20;1829058;78;20275;-76
2021/04/01 08:31:40;;;;;;;;;;;;;;;10.56;54.48;101823.53;1824940;78;20759;-76
2021/04/01 08:34:20;;;;;;;;;;;;;;;10.62;54.51;101813.34;1825519;78;20315;-75
2021/04/01 08:36:28;;;;;;;;;;;;;;;10.69;54.46;101812.59;1845875;77;20304;-74
2021/04/01 08:38:58;;;;;;;;;;;;;;;10.73;54.23;101811.05;1824533;78;20291;-74
2021/04/01 08:41:39;;;;;;;;;;;;;;;10.80;54.11;101807.25;1842150;77;20622;-73
2021/04/01 08:44:19;;;;;;;;;;;;;;;10.86;53.57;101800.91;1854009;77;20478;-73
2021/04/01 08:47:21;;;;;;;;;;;;;;;10.93;53.51;101804.89;1870655;76;20311;-73
2021/04/01 08:50:27;;;;;;;;;;;;;;;11.05;53.41;101794.73;1852043;76;21190;-74
2021/04/01 08:53:37;;;;;;;;;;;;;;;11.22;53.16;101795.64;1803704;77;21528;-76
2021/04/01 08:56:23;;;;;;;;;;;;;;;11.31;54.64;101789.52;1828289;78;20285;-77
2021/04/01 08:59:12;;;;;;;;;;;;;;;11.30;55.30;101781.79;1808557;77;20300;-76
2021/04/01 09:01:41;;;;;;;;;;;;;;;11.34;55.65;101780.27;1841558;78;20268;-74
2021/04/01 09:04:10;;;;;;;;;;;;;;;11.41;55.19;101779.49;1807831;78;21184;-78
2021/04/01 09:06:42;;;;;;;;;;;;;;;11.41;54.94;101774.30;1835606;77;20681;-78
2021/04/01 09:09:20;;;;;;;;;;;;;;;11.40;54.60;101777.34;1858785;76;20277;-78
2021/04/01 09:12:00;;;;;;;;;;;;;;;11.35;54.46;101771.56;1855965;77;20794;-80
2021/04/01 09:14:29;;;;;;;;;;;;;;;11.35;55.01;101774.16;1857078;77;20261;-77
2021/04/01 09:17:15;;;;;;;;;;;;;;;11.42;54.80;101762.50;1876006;76;20997;-76
2021/04/01 09:19:47;;;;;;;;;;;;;;;11.48;54.56;101761.37;1875219;76;20296;-79
2021/04/01 09:22:16;;;;;;;;;;;;;;;11.57;54.57;101755.23;1876271;76;20280;-76
2021/04/01 09:24:44;;;;;;;;;;;;;;;11.66;53.81;101753.44;1875493;76;20292;-76
2021/04/01 09:27:14;;;;;;;;;;;;;;;11.75;53.61;101754.73;1875140;76;36160;-74
2021/04/01 09:29:44;;;;;;;;;;;;;;;11.86;54.30;101747.20;1875047;76;22434;-76
2021/04/01 09:32:13;;;;;;;;;;;;;;;11.95;53.32;101745.86;1875474;76;20295;-77
2021/04/01 09:34:44;;;;;;;;;;;;;;;12.07;52.85;101740.82;1875778;76;20374;-82
2021/04/01 09:37:15;;;;;;;;;;;;;;;12.16;52.25;101753.32;1871051;76;20281;-75
2021/04/01 09:39:44;;;;;;;;;;;;;;;12.17;52.10;101740.70;1859583;77;20289;-78
2021/04/01 09:42:14;;;;;;;;;;;;;;;12.29;52.00;101738.31;1859561;77;21201;-75
2021/04/01 09:44:50;;;;;;;;;;;;;;;12.37;51.59;101733.08;1860103;77;20377;-74
2021/04/01 09:47:31;;;;;;;;;;;;;;;12.48;51.25;101733.75;1859729;77;20273;-76
2021/04/01 09:50:11;;;;;;;;;;;;;;;12.62;51.41;101726.85;1859445;77;20324;-75
2021/04/01 09:52:41;;;;;;;;;;;;;;;13.56;49.97;101714.69;1859873;77;20276;-78
2021/04/01 09:55:18;;;;;;;;;;;;;;;14.94;47.03;101711.41;1860303;76;21352;-77
2021/04/01 09:57:48;;;;;;;;;;;;;;;15.99;43.57;101707.51;1851886;77;20377;-81
2021/04/01 10:01:00;;;;;;;;;;;;;;;16.84;42.00;101702.06;1842126;77;20306;-76
2021/04/01 10:03:22;;;;;;;;;;;;;;;17.64;40.08;101691.88;1851772;76;20248;-78
2021/04/01 10:05:52;;;;;;;;;;;;;;;18.37;37.77;101694.64;1839439;76;20281;-76
2021/04/01 10:08:24;;;;;;;;;;;;;;;19.09;37.48;101693.87;1873100;76;21253;-79
2021/04/01 10:11:01;;;;;;;;;;;;;;;20.12;35.07;101692.69;1843010;76;20219;-79
2021/04/01 10:13:31;;;;;;;;;;;;;;;20.92;34.29;101686.61;1837859;76;20286;-78
2021/04/01 10:16:02;;;;;;;;;;;;;;;21.55;31.30;101685.81;1840933;78;20290;-78
2021/04/01 10:18:37;;;;;;;;;;;;;;;21.67;31.37;101678.51;1840813;78;20656;-79
2021/04/01 10:21:10;;;;;;;;;;;;;;;22.10;31.12;101680.00;1841231;78;21207;-77
2021/04/01 10:23:55;;;;;;;;;;;;;;;22.30;30.33;101678.03;1839682;78;20306;-77
2021/04/01 10:26:30;;;;;;;;;;;;;;;22.39;30.72;101671.82;1840684;76;20285;-79
2021/04/01 10:29:10;;;;;;;;;;;;;;;22.57;29.30;101663.36;1840957;76;20188;-80
2021/04/01 10:31:42;;;;;;;;;;;;;;;22.07;29.57;101672.86;1839499;78;20646;-77
2021/04/01 10:34:23;;;;;;;;;;;;;;;21.76;30.16;101663.59;1840290;78;22304;-82
2021/04/01 10:37:08;;;;;;;;;;;;;;;22.23;30.10;101660.27;1870408;76;20336;-77
2021/04/01 10:39:39;;;;;;;;;;;;;;;23.05;28.93;101650.11;1849824;77;20233;-77
2021/04/01 10:42:12;;;;;;;;;;;;;;;24.05;27.78;101660.71;1842592;78;20277;-82
2021/04/01 10:44:42;;;;;;;;;;;;;;;24.27;26.69;101653.95;1842466;77;20280;-79
2021/04/01 10:47:14;;;;;;;;;;;;;;;24.29;26.93;101660.73;1841753;78;21360;-78
2021/04/01 10:49:44;;;;;;;;;;;;;;;24.19;26.43;101655.59;1853428;77;20308;-75
2021/04/01 10:52:13;;;;;;;;;;;;;;;23.91;26.85;101656.87;1826689;77;20140;-77
2021/04/01 10:54:45;;;;;;;;;;;;;;;23.68;27.32;101651.36;1831657;78;20308;-76
2021/04/01 10:57:29;;;;;;;;;;;;;;;23.92;27.03;101648.43;1811377;79;20279;-75
2021/04/01 11:00:03;;;;;;;;;;;;;;;24.22;26.89;101645.98;1832420;78;21330;-77
2021/04/01 11:02:41;;;;;;;;;;;;;;;24.51;26.03;101633.53;1814489;78;20376;-75
2021/04/01 11:05:16;;;;;;;;;;;;;;;24.78;25.78;101628.83;1819413;78;20720;-81
2021/04/01 11:07:48;;;;;;;;;;;;;;;25.09;25.70;101619.13;1837293;78;20288;-78
2021/04/01 11:10:23;;;;;;;;;;;;;;;25.16;25.09;101620.10;1840582;78;20277;-75
2021/04/01 11:12:55;;;;;;;;;;;;;;;25.22;25.62;101607.45;1827423;78;21403;-75
2021/04/01 11:15:24;;;;;;;;;;;;;;;25.72;24.63;101607.02;1831030;78;20201;-80
2021/04/01 11:17:55;;;;;;;;;;;;;;;25.44;24.60;101604.51;1864794;77;20610;-75
2021/04/01 11:20:24;;;;;;;;;;;;;;;25.10;25.54;101605.69;1833711;76;20691;-78
2021/04/01 11:23:02;;;;;;;;;;;;;;;25.64;25.07;101595.95;1832889;78;20255;-77
2021/04/01 11:25:30;;;;;;;;;;;;;;;25.94;24.54;101592.87;1836293;77;21188;-75
2021/04/01 11:27:58;;;;;;;;;;;;;;;26.26;24.10;101586.52;1839114;77;20156;-76
2021/04/01 11:30:42;;;;;;;;;;;;;;;25.92;24.32;101589.58;1832293;77;20338;-72
2021/04/01 11:33:15;;;;;;;;;;;;;;;25.73;24.45;101582.92;1832428;78;20349;-75
2021/04/01 11:35:48;;;;;;;;;;;;;;;25.32;24.86;101580.17;1834323;77;20310;-76
2021/04/01 11:38:22;;;;;;;;;;;;;;;24.70;25.92;101577.91;1837392;77;21198;-78
2021/04/01 11:40:59;;;;;;;;;;;;;;;24.25;25.79;101577.17;1854899;76;20388;-79
2021/04/01 11:43:31;;;;;;;;;;;;;;;22.94;27.32;101577.08;1841139;76;20363;-74
2021/04/01 11:46:14;;;;;;;;;;;;;;;22.25;28.69;101571.87;1838984;78;20789;-74
2021/04/01 11:48:43;;;;;;;;;;;;;;;21.90;29.09;101575.40;1838534;78;20306;-74
2021/04/01 11:51:25;;;;;;;;;;;;;;;21.66;29.31;101575.16;1839996;76;22700;-79
2021/04/01 11:53:54;;;;;;;;;;;;;;;21.21;30.22;101570.38;1838380;78;20327;-76
2021/04/01 11:56:25;;;;;;;;;;;;;;;21.31;30.56;101562.76;1839135;78;20234;-77
2021/04/01 11:58:53;;;;;;;;;;;;;;;21.23;30.22;101560.02;1838387;78;20680;-74
2021/04/01 12:01:26;;;;;;;;;;;;;;;20.65;31.09;101556.78;1839890;78;20477;-75
2021/04/01 12:03:56;;;;;;;;;;;;;;;20.61;31.15;101548.84;1851129;76;21788;-76
2021/04/01 12:06:22;;;;;;;;;;;;;;;20.64;31.19;101548.55;1870269;76;20205;-76
2021/04/01 12:08:50;;;;;;;;;;;;;;;20.71;31.24;101540.38;1864976;76;20610;-75
2021/04/01 12:11:19;;;;;;;;;;;;;;;20.80;31.05;101540.02;1839242;77;20838;-75
2021/04/01 12:13:50;;;;;;;;;;;;;;;20.76;31.43;101534.67;1839406;77;20597;-78
2021/04/01 12:16:24;;;;;;;;;;;;;;;20.70;31.24;101533.46;1839881;77;21191;-76
2021/04/01 12:18:52;;;;;;;;;;;;;;;20.49;31.31;101532.83;1840353;76;20450;-77
2021/04/01 12:21:20;;;;;;;;;;;;;;;20.51;31.43;101522.50;1841633;76;20227;-74
2021/04/01 12:23:51;;;;;;;;;;;;;;;20.70;31.30;101523.39;1839053;78;20774;-74
2021/04/01 12:26:20;;;;;;;;;;;;;;;21.01;31.01;101517.67;1840330;78;20207;-77
2021/04/01 12:29:01;;;;;;;;;;;;;;;21.02;30.82;101521.15;1868334;76;21181;-76
2021/04/01 12:31:34;;;;;;;;;;;;;;;21.09;30.94;101514.34;1866593;76;20152;-74
2021/04/01 12:34:02;;;;;;;;;;;;;;;21.05;31.08;101509.81;1839464;78;20333;-82
2021/04/01 12:36:35;;;;;;;;;;;;;;;21.21;30.84;101502.58;1840879;76;20749;-74
2021/04/01 12:39:05;;;;;;;;;;;;;;;21.25;30.98;101503.92;1869541;76;20319;-78
2021/04/01 12:41:36;;;;;;;;;;;;;;;21.34;30.65;101498.25;1839473;78;21189;-79
2021/04/01 12:44:04;;;;;;;;;;;;;;;21.53;30.06;101490.18;1838850;78;20270;-75
2021/04/01 12:46:37;;;;;;;;;;;;;;;21.70;29.66;101489.83;1839345;78;20540;-76
2021/04/01 12:49:06;;;;;;;;;;;;;;;21.79;29.44;101487.59;1839280;78;20266;-75
2021/04/01 12:51:46;;;;;;;;;;;;;;;21.66;29.57;101486.66;1839306;78;20207;-75
2021/04/01 12:54:17;;;;;;;;;;;;;;;21.51;29.82;101480.23;1839524;78;21188;-75
2021/04/01 12:56:50;;;;;;;;;;;;;;;21.27;29.79;101475.58;1839286;78;20498;-75
2021/04/01 12:59:23;;;;;;;;;;;;;;;20.82;30.56;101473.41;1839650;78;20613;-75
2021/04/01 13:02:00;;;;;;;;;;;;;;;20.71;31.10;101470.99;1839034;78;20314;-74
2021/04/01 13:04:22;;;;;;;;;;;;;;;21.16;30.23;101466.55;1836708;77;20266;-75
2021/04/01 13:11:55;;;;;;;;;;;;;;;23.31;28.02;101454.05;1842096;78;20168;-75
2021/04/01 13:14:23;;;;;;;;;;;;;;;23.84;27.51;101449.09;1843092;78;20104;-75
2021/04/01 13:16:52;;;;;;;;;;;;;;;23.70;26.40;101451.12;1843438;78;20195;-79
2021/04/01 13:19:19;;;;;;;;;;;;;;;23.19;26.85;101453.07;1843369;78;21197;-76
2021/04/01 13:24:30;;;;;;;;;;;;;;;22.19;28.08;101444.75;1842039;78;20171;-74
2021/04/01 13:26:55;;;;;;;;;;;;;;;21.72;28.97;101436.34;1841146;75;20215;-78
2021/04/01 13:29:23;;;;;;;;;;;;;;;21.22;29.65;101438.23;1843146;78;20295;-77
2021/04/01 13:31:58;;;;;;;;;;;;;;;20.55;30.26;101428.09;1842484;78;22130;-76
2021/04/01 13:34:39;;;;;;;;;;;;;;;19.79;31.23;101430.48;1811065;78;20140;-78
2021/04/01 13:37:14;;;;;;;;;;;;;;;19.38;31.87;101428.50;1841871;76;20234;-74
2021/04/01 13:39:45;;;;;;;;;;;;;;;19.31;32.31;101419.50;1837459;78;20644;-74
2021/04/01 13:42:21;;;;;;;;;;;;;;;19.83;32.21;101418.70;1836341;76;20338;-81
2021/04/01 13:44:53;;;;;;;;;;;;;;;20.40;31.47;101412.42;1836722;76;22250;-76
2021/04/01 13:47:21;;;;;;;;;;;;;;;20.67;30.74;101409.79;1837009;78;20211;-74
2021/04/01 13:49:53;;;;;;;;;;;;;;;20.62;30.89;101409.87;1842076;76;20188;-73
2021/04/01 14:11:27;;;;;;;;;;;;;;;24.04;26.48;101380.61;1834980;78;22176;-74
2021/04/01 14:13:56;;;;;;;;;;;;;;;24.25;26.38;101376.11;1833644;78;20175;-74
2021/04/01 14:16:25;;;;;;;;;;;;;;;24.30;26.06;101375.08;1834588;78;20112;-74
2021/04/01 14:18:53;;;;;;;;;;;;;;;24.10;25.96;101372.80;1834896;78;20235;-76
2021/04/01 14:21:23;;;;;;;;;;;;;;;23.79;26.26;101375.89;1835758;78;20136;-75
2021/04/01 14:23:54;;;;;;;;;;;;;;;23.34;26.86;101374.27;1836092;78;22271;-74
2021/04/01 14:28:55;;;;;;;;;;;;;;;22.07;27.98;101376.30;1834645;78;20141;-76
2021/04/01 14:31:23;;;;;;;;;;;;;;;21.40;28.96;101372.22;1834142;78;20164;-75
2021/04/01 14:33:53;;;;;;;;;;;;;;;20.83;30.29;101362.48;1834597;78;20227;-75
2021/04/01 14:36:24;;;;;;;;;;;;;;;20.52;30.56;101361.14;1834868;78;21175;-75
2021/04/01 14:38:52;;;;;;;;;;;;;;;20.46;30.41;101366.52;1835907;77;20298;-75
2021/04/01 14:44:06;;;;;;;;;;;;;;;20.62;30.93;101353.17;1843035;78;20139;-73
2021/04/01 14:46:33;;;;;;;;;;;;;;;20.38;30.73;101351.95;1842448;78;20172;-79